Time;durP1;ratioP1;P1;durP2;ratioP2;P2;SDS_P1;SDS_P2;PMS_P1;PMS_P2;Temp;Humidity;BMP_temperature;BMP_pressure;BME280_temperature;BME280_humidity;BME280_pressure;Samples;Min_cycle;Max_cycle;Signal;HPM_P1;HPM_P2
2023/01/22 00:01:11;;;;;;;17.45;12.35;;;;;;;3.68;100.00;100472.78;5105076;28;20390;-70
2023/01/22 00:03:38;;;;;;;18.77;11.98;;;;;;;3.69;100.00;100475.34;5103502;28;20027;-71
2023/01/22 00:06:04;;;;;;;19.42;12.98;;;;;;;3.67;100.00;100468.38;5107249;28;20019;-71
2023/01/22 00:08:29;;;;;;;17.88;12.55;;;;;;;3.59;100.00;100454.72;5100516;28;20051;-71
2023/01/22 00:10:55;;;;;;;19.60;12.18;;;;;;;3.70;100.00;100463.78;5101106;28;21479;-70
2023/01/22 00:13:22;;;;;;;18.02;11.68;;;;;;;3.67;100.00;100468.38;5106424;28;20027;-71
2023/01/22 00:15:48;;;;;;;19.83;11.85;;;;;;;3.64;100.00;100452.69;5096756;28;20035;-71
2023/01/22 00:18:14;;;;;;;18.33;11.82;;;;;;;3.65;100.00;100468.47;5106454;28;20038;-70
2023/01/22 00:20:39;;;;;;;19.17;12.35;;;;;;;3.56;100.00;100453.13;5103284;28;20151;-70
2023/01/22 00:23:05;;;;;;;18.17;11.82;;;;;;;3.58;100.00;100461.81;5107033;28;20488;-71
2023/01/22 00:25:31;;;;;;;19.15;12.48;;;;;;;3.51;100.00;100457.81;5095926;28;20068;-72
2023/01/22 00:27:57;;;;;;;17.23;11.15;;;;;;;3.68;100.00;100483.38;5106003;28;20027;-70
2023/01/22 00:30:22;;;;;;;14.13;10.35;;;;;;;3.65;100.00;100465.00;5101954;28;20035;-71
2023/01/22 00:32:48;;;;;;;17.08;11.63;;;;;;;3.65;100.00;100475.59;5103499;28;20027;-71
2023/01/22 00:35:13;;;;;;;19.05;13.00;;;;;;;3.64;100.00;100471.25;5102094;28;20020;-71
2023/01/22 00:37:38;;;;;;;15.70;11.02;;;;;;;3.68;100.00;100475.41;5102723;28;20023;-71
2023/01/22 00:40:05;;;;;;;17.45;10.95;;;;;;;3.67;100.00;100485.16;5091730;28;20043;-71
2023/01/22 00:42:30;;;;;;;17.95;11.80;;;;;;;3.57;100.00;100480.47;5105268;28;20043;-71
2023/01/22 00:44:58;;;;;;;18.30;11.35;;;;;;;3.53;100.00;100477.16;5103085;28;20185;-70
2023/01/22 00:47:24;;;;;;;16.88;11.20;;;;;;;3.60;100.00;100485.59;5097714;28;20372;-70
2023/01/22 00:49:49;;;;;;;15.65;10.75;;;;;;;3.64;100.00;100492.47;5098999;28;20039;-71
2023/01/22 00:52:15;;;;;;;14.80;9.98;;;;;;;3.61;100.00;100493.47;5103313;28;20090;-71
2023/01/22 00:54:40;;;;;;;18.25;10.75;;;;;;;3.63;100.00;100493.38;5100077;28;20047;-71
2023/01/22 00:57:06;;;;;;;17.05;11.10;;;;;;;3.62;100.00;100499.63;5099370;28;20040;-70
2023/01/22 00:59:31;;;;;;;16.83;10.63;;;;;;;3.57;100.00;100491.94;5096285;28;20028;-69
2023/01/22 01:01:56;;;;;;;16.35;10.73;;;;;;;3.59;100.00;100486.53;5096170;28;20050;-70
2023/01/22 01:04:22;;;;;;;17.13;10.15;;;;;;;3.56;100.00;100484.94;5098233;28;20026;-70
2023/01/22 01:06:47;;;;;;;17.50;11.00;;;;;;;3.61;100.00;100488.16;5095512;28;20035;-71
2023/01/22 01:09:13;;;;;;;14.95;9.50;;;;;;;3.56;100.00;100470.81;5102029;28;20016;-70
2023/01/22 01:11:38;;;;;;;16.35;10.20;;;;;;;3.56;100.00;100466.38;5095350;28;20020;-70
2023/01/22 01:14:04;;;;;;;13.95;10.02;;;;;;;3.66;100.00;100482.59;5102328;28;20022;-71
2023/01/22 01:16:31;;;;;;;15.48;10.20;;;;;;;3.67;100.00;100476.34;5101026;28;20028;-71
2023/01/22 01:19:02;;;;;;;14.63;10.05;;;;;;;3.62;100.00;100471.31;5098384;28;20026;-71
2023/01/22 01:21:28;;;;;;;15.45;9.85;;;;;;;3.59;100.00;100470.63;5098163;28;20035;-71
2023/01/22 01:23:57;;;;;;;17.52;10.38;;;;;;;3.63;100.00;100477.47;5100938;28;20019;-71
2023/01/22 01:26:23;;;;;;;16.58;10.45;;;;;;;3.61;100.00;100485.50;5095878;28;20047;-71
2023/01/22 01:28:51;;;;;;;17.02;10.73;;;;;;;3.64;100.00;100476.53;5100536;28;20024;-70
2023/01/22 01:31:18;;;;;;;16.85;10.25;;;;;;;3.64;100.00;100476.53;5099186;28;20043;-70
2023/01/22 01:33:44;;;;;;;14.90;10.18;;;;;;;3.57;100.00;100476.03;5104644;28;20024;-70
2023/01/22 01:36:17;;;;;;;16.70;10.32;;;;;;;3.62;100.00;100470.47;5093506;28;20032;-71
2023/01/22 01:38:43;;;;;;;14.52;9.48;;;;;;;3.59;100.00;100470.63;5105048;28;20473;-71
2023/01/22 01:41:11;;;;;;;15.57;10.07;;;;;;;3.60;100.00;100469.69;5100816;28;20039;-71
2023/01/22 01:43:37;;;;;;;14.10;9.68;;;;;;;3.57;100.00;100459.25;5102396;28;20061;-71
2023/01/22 01:46:10;;;;;;;16.38;10.98;;;;;;;3.57;100.00;100477.81;5097599;28;20557;-71
2023/01/22 01:48:42;;;;;;;16.05;10.45;;;;;;;3.56;100.00;100470.81;5106086;28;20124;-70
2023/01/22 01:51:15;;;;;;;15.73;10.18;;;;;;;3.58;100.00;100471.59;5102154;27;20050;-70
2023/01/22 01:53:42;;;;;;;17.83;11.57;;;;;;;3.58;100.00;100474.25;5105466;27;20031;-70
2023/01/22 01:56:16;;;;;;;15.65;10.02;;;;;;;3.57;100.00;100473.38;5104014;28;20118;-70
2023/01/22 01:58:44;;;;;;;16.60;10.43;;;;;;;3.57;100.00;100473.38;5107891;28;20019;-70
2023/01/22 02:01:13;;;;;;;17.33;10.73;;;;;;;3.52;100.00;100453.38;5102837;28;20023;-70
2023/01/22 02:03:40;;;;;;;15.38;10.18;;;;;;;3.49;100.00;100443.81;5103722;28;20031;-71
2023/01/22 02:06:10;;;;;;;15.48;10.55;;;;;;;3.55;100.00;100458.50;5103320;28;20055;-71
2023/01/22 02:08:36;;;;;;;17.88;11.05;;;;;;;3.48;100.00;100450.03;5095945;28;20027;-71
2023/01/22 02:11:02;;;;;;;18.02;11.70;;;;;;;3.55;100.00;100458.50;5098543;28;20036;-71
2023/01/22 02:13:30;;;;;;;16.77;10.65;;;;;;;3.55;100.00;100461.16;5102592;28;20030;-70
2023/01/22 02:15:56;;;;;;;18.20;11.57;;;;;;;3.57;100.00;100464.56;5101468;28;20755;-71
2023/01/22 02:18:21;;;;;;;19.45;12.25;;;;;;;3.53;100.00;100466.53;5105117;28;20027;-70
2023/01/22 02:20:56;;;;;;;19.38;11.40;;;;;;;3.59;100.00;100475.94;5103388;28;20031;-70
2023/01/22 02:23:22;;;;;;;18.55;11.27;;;;;;;3.57;100.00;100472.50;5099893;28;20059;-70
2023/01/22 02:25:48;;;;;;;18.95;11.23;;;;;;;3.57;100.00;100472.50;5093793;28;20122;-70
2023/01/22 02:28:13;;;;;;;17.75;10.65;;;;;;;3.58;100.00;100483.03;5099848;28;20455;-70
2023/01/22 02:30:39;;;;;;;17.95;11.85;;;;;;;3.61;100.00;100468.75;5103891;28;20037;-70
2023/01/22 02:33:04;;;;;;;18.02;11.18;;;;;;;3.58;100.00;100471.59;5102736;28;20024;-70
2023/01/22 02:35:30;;;;;;;17.50;10.93;;;;;;;3.57;100.00;100469.84;5105493;27;20026;-70
2023/01/22 02:37:55;;;;;;;18.10;10.82;;;;;;;3.57;100.00;100472.50;5101104;28;20032;-70
2023/01/22 02:40:21;;;;;;;17.30;10.60;;;;;;;3.62;100.00;100458.06;5098747;28;20024;-70
2023/01/22 02:42:46;;;;;;;19.27;11.68;;;;;;;3.56;100.00;100455.75;5101625;28;20031;-70
2023/01/22 02:45:12;;;;;;;19.10;11.10;;;;;;;3.58;100.00;100468.94;5105763;28;20041;-70
2023/01/22 02:47:37;;;;;;;17.00;11.20;;;;;;;3.63;100.00;100466.84;5104900;28;20028;-70
2023/01/22 02:50:03;;;;;;;17.55;10.70;;;;;;;3.61;100.00;100466.13;5098283;28;20028;-70
2023/01/22 02:52:30;;;;;;;18.77;11.52;;;;;;;3.54;100.00;100455.00;5107493;28;20040;-70
2023/01/22 02:54:55;;;;;;;15.75;9.70;;;;;;;3.60;100.00;100456.44;5105009;28;20783;-71
2023/01/22 02:57:21;;;;;;;15.35;10.48;;;;;;;3.58;100.00;100445.91;5099348;27;20040;-71
2023/01/22 02:59:46;;;;;;;16.80;10.35;;;;;;;3.60;100.00;100448.47;5104397;28;20047;-71
2023/01/22 03:02:12;;;;;;;15.55;9.60;;;;;;;3.62;100.00;100463.38;5102736;28;20032;-70
2023/01/22 03:04:37;;;;;;;15.82;10.02;;;;;;;3.58;100.00;100448.56;5099440;28;20043;-71
2023/01/22 03:07:03;;;;;;;15.45;9.80;;;;;;;3.62;100.00;100459.84;5108232;28;20027;-71
2023/01/22 03:09:29;;;;;;;15.63;10.52;;;;;;;3.59;100.00;100457.38;5101517;28;20084;-70
2023/01/22 03:11:54;;;;;;;12.95;9.23;;;;;;;3.60;100.00;100452.00;5099400;27;20084;-71
2023/01/22 03:22:34;;;;;;;19.35;10.55;;;;;;;3.58;100.00;100445.91;5102671;28;20070;-71
2023/01/22 03:25:00;;;;;;;15.77;10.40;;;;;;;3.56;100.00;100441.63;5102538;28;20059;-70
2023/01/22 03:27:27;;;;;;;14.27;9.45;;;;;;;3.60;100.00;100438.72;5101957;28;20722;-70
2023/01/22 03:29:52;;;;;;;15.70;9.75;;;;;;;3.63;100.00;100437.69;5101201;28;20029;-71
2023/01/22 03:32:18;;;;;;;14.95;10.15;;;;;;;3.65;100.00;100439.31;5104100;28;20492;-71
2023/01/22 03:34:43;;;;;;;16.05;10.23;;;;;;;3.58;100.00;100422.03;5100485;28;20112;-70
2023/01/22 03:37:13;;;;;;;14.15;9.20;;;;;;;3.60;100.00;100444.03;5098707;28;20038;-70
2023/01/22 03:39:39;;;;;;;15.93;9.80;;;;;;;3.59;100.00;100438.81;5106176;28;20052;-70
2023/01/22 03:42:04;;;;;;;15.13;9.48;;;;;;;3.56;100.00;100439.00;5092174;28;20337;-71
2023/01/22 03:44:30;;;;;;;15.10;9.60;;;;;;;3.61;100.00;100455.50;5103566;28;20034;-70
2023/01/22 03:46:55;;;;;;;18.45;9.85;;;;;;;3.58;100.00;100447.72;5102156;28;20035;-70
2023/01/22 03:49:21;;;;;;;15.15;9.95;;;;;;;3.56;100.00;100444.28;5105964;28;20035;-70
2023/01/22 03:51:46;;;;;;;17.02;9.85;;;;;;;3.59;100.00;100446.78;5097876;28;20097;-70
2023/01/22 03:54:14;;;;;;;12.40;8.57;;;;;;;3.58;100.00;100445.06;5100806;28;20074;-71
2023/01/22 03:56:40;;;;;;;15.00;9.23;;;;;;;3.58;100.00;100445.06;5102717;28;20395;-71
2023/01/22 03:59:07;;;;;;;14.20;9.57;;;;;;;3.60;100.00;100451.13;5100288;28;20569;-70
2023/01/22 04:01:33;;;;;;;14.82;9.10;;;;;;;3.59;100.00;100450.28;5097977;28;20624;-71
2023/01/22 04:03:58;;;;;;;13.60;8.63;;;;;;;3.58;100.00;100451.22;5100299;28;20040;-71
2023/01/22 04:06:25;;;;;;;14.35;9.15;;;;;;;3.58;100.00;100445.06;5100216;28;20081;-70
2023/01/22 04:08:53;;;;;;;14.52;8.60;;;;;;;3.62;100.00;100441.28;5098905;28;20019;-71
2023/01/22 04:11:19;;;;;;;12.88;8.15;;;;;;;3.67;100.00;100447.16;5094857;28;20491;-70
2023/01/22 04:13:44;;;;;;;14.13;9.07;;;;;;;3.63;100.00;100441.22;5105649;28;20028;-71
2023/01/22 04:16:12;;;;;;;13.00;7.55;;;;;;;3.63;100.00;100443.00;5104334;28;20023;-71
2023/01/22 04:18:37;;;;;;;13.48;8.50;;;;;;;3.65;100.00;100443.78;5098480;28;20032;-71
2023/01/22 04:21:04;;;;;;;14.00;8.65;;;;;;;3.63;100.00;100445.66;5091835;28;20121;-70
2023/01/22 04:23:30;;;;;;;13.20;8.52;;;;;;;3.65;100.00;100465.00;5097861;28;20024;-70
2023/01/22 04:25:56;;;;;;;13.07;8.60;;;;;;;3.74;100.00;100475.91;5092308;28;20411;-70
2023/01/22 04:28:21;;;;;;;14.95;9.25;;;;;;;3.64;100.00;100473.91;5097639;28;20042;-71
2023/01/22 04:30:50;;;;;;;11.63;8.05;;;;;;;3.59;100.00;100471.50;5096298;28;20034;-71
2023/01/22 04:33:15;;;;;;;13.70;9.05;;;;;;;3.62;100.00;100481.06;5116185;27;20028;-71
2023/01/22 04:35:41;;;;;;;12.98;8.55;;;;;;;3.58;100.00;100480.38;5103792;28;20019;-70
2023/01/22 04:38:08;;;;;;;15.38;8.27;;;;;;;3.64;100.00;100503.06;5097553;28;20433;-71
2023/01/22 04:40:34;;;;;;;12.00;7.75;;;;;;;3.62;100.00;100494.31;5089895;28;20550;-70
2023/01/22 04:43:04;;;;;;;14.43;7.95;;;;;;;3.65;100.00;100502.94;5097915;28;20122;-71
2023/01/22 04:45:29;;;;;;;11.43;7.97;;;;;;;3.66;100.00;100507.34;5100400;28;20043;-71
2023/01/22 04:47:55;;;;;;;12.23;7.65;;;;;;;3.62;100.00;100504.94;5099791;28;20040;-71
2023/01/22 04:50:23;;;;;;;15.57;8.70;;;;;;;3.60;100.00;100496.19;5102993;28;20053;-71
2023/01/22 04:52:50;;;;;;;11.32;7.28;;;;;;;3.64;100.00;100500.41;5123277;27;20054;-70
2023/01/22 04:55:16;;;;;;;10.95;7.25;;;;;;;3.57;100.00;100505.19;5091449;28;20044;-71
2023/01/22 04:57:42;;;;;;;13.07;7.55;;;;;;;3.46;100.00;100491.69;5093544;28;20072;-71
2023/01/22 05:00:09;;;;;;;12.02;7.03;;;;;;;3.54;100.00;100513.31;5098990;28;20560;-72
2023/01/22 05:02:34;;;;;;;9.40;7.07;;;;;;;3.63;100.00;100511.94;5093616;28;20491;-70
2023/01/22 05:04:59;;;;;;;11.18;6.80;;;;;;;3.63;100.00;100519.91;5099425;28;20028;-71
2023/01/22 05:07:25;;;;;;;11.23;7.75;;;;;;;3.60;100.00;100525.38;5091716;28;20027;-70
2023/01/22 05:09:50;;;;;;;10.77;7.43;;;;;;;3.61;100.00;100522.63;5099171;28;20024;-69
2023/01/22 05:12:16;;;;;;;11.57;7.43;;;;;;;3.56;100.00;100516.75;5098571;28;20027;-70
2023/01/22 05:14:41;;;;;;;12.68;7.93;;;;;;;3.60;100.00;100525.38;5095311;28;20027;-70
2023/01/22 05:17:07;;;;;;;12.57;8.10;;;;;;;3.56;100.00;100518.53;5101272;28;20388;-70
2023/01/22 05:19:34;;;;;;;12.70;7.72;;;;;;;3.61;100.00;100525.28;5096123;28;20599;-70
2023/01/22 05:22:00;;;;;;;13.35;7.93;;;;;;;3.63;100.00;100531.38;5093932;28;20427;-70
2023/01/22 05:24:25;;;;;;;11.77;7.38;;;;;;;3.64;100.00;100543.69;5099387;28;20031;-71
2023/01/22 05:26:51;;;;;;;10.75;7.70;;;;;;;3.70;100.00;100547.78;5103068;28;20525;-71
2023/01/22 05:29:16;;;;;;;10.50;7.32;;;;;;;3.67;100.00;100566.50;5098583;27;20020;-71
2023/01/22 05:31:42;;;;;;;12.07;7.82;;;;;;;3.66;100.00;100572.75;5093885;27;20019;-71
2023/01/22 05:34:07;;;;;;;12.18;7.57;;;;;;;3.68;100.00;100582.34;5102827;28;20613;-70
2023/01/22 05:36:33;;;;;;;13.45;7.93;;;;;;;3.70;100.00;100588.41;5092941;28;20019;-71
2023/01/22 05:38:58;;;;;;;11.23;7.88;;;;;;;3.70;100.00;100584.91;5098416;27;20039;-68
2023/01/22 05:41:24;;;;;;;11.35;7.68;;;;;;;3.67;100.00;100574.47;5098773;28;20027;-71
2023/01/22 05:43:49;;;;;;;11.27;8.27;;;;;;;3.68;100.00;100581.50;5104093;28;20269;-70
2023/01/22 05:46:15;;;;;;;12.73;8.15;;;;;;;3.74;100.00;100589.13;5099258;28;20035;-70
2023/01/22 05:48:40;;;;;;;12.00;8.23;;;;;;;3.76;100.00;100595.19;5100138;28;20043;-70
2023/01/22 05:51:07;;;;;;;11.05;7.55;;;;;;;3.76;100.00;100574.81;5098221;28;20095;-70
2023/01/22 05:53:33;;;;;;;12.98;8.10;;;;;;;3.76;100.00;100579.25;5102417;28;20035;-70
2023/01/22 05:56:01;;;;;;;13.40;8.35;;;;;;;3.71;100.00;100574.22;5099899;28;20031;-70
2023/01/22 05:58:28;;;;;;;13.45;8.48;;;;;;;3.71;100.00;100568.06;5105867;28;20027;-70
2023/01/22 06:00:53;;;;;;;13.75;8.93;;;;;;;3.70;100.00;100564.56;5108221;28;20012;-70
2023/01/22 06:03:18;;;;;;;12.50;8.13;;;;;;;3.72;100.00;100561.81;5100275;28;20035;-70
2023/01/22 06:05:44;;;;;;;11.60;7.65;;;;;;;3.68;100.00;100576.19;5094383;28;20020;-70
2023/01/22 06:08:09;;;;;;;14.68;9.05;;;;;;;3.63;100.00;100572.94;5091840;28;20025;-70
2023/01/22 06:10:35;;;;;;;12.57;8.48;;;;;;;3.67;100.00;100588.59;5097355;27;20469;-70
2023/01/22 06:13:01;;;;;;;13.55;8.40;;;;;;;3.60;100.00;100579.25;5101275;28;20055;-70
2023/01/22 06:15:26;;;;;;;13.68;8.90;;;;;;;3.59;100.00;100598.78;5105649;28;20019;-70
2023/01/22 06:17:51;;;;;;;14.65;8.52;;;;;;;3.61;100.00;100618.09;5098811;28;20047;-70
2023/01/22 06:20:17;;;;;;;11.68;7.97;;;;;;;3.59;100.00;100627.09;5102871;27;20024;-70
2023/01/22 06:22:42;;;;;;;10.82;7.47;;;;;;;3.67;100.00;100631.03;5098571;28;20042;-70
2023/01/22 06:25:08;;;;;;;12.88;8.30;;;;;;;3.65;100.00;100618.78;5094011;28;20024;-70
2023/01/22 06:27:34;;;;;;;11.73;8.50;;;;;;;3.72;100.00;100633.44;5101729;28;20024;-71
2023/01/22 06:29:59;;;;;;;13.00;8.05;;;;;;;3.68;100.00;100639.84;5104167;27;20593;-70
2023/01/22 06:32:25;;;;;;;14.52;9.20;;;;;;;3.67;100.00;100633.69;5099724;28;20035;-70
2023/01/22 06:34:51;;;;;;;12.82;8.30;;;;;;;3.67;100.00;100641.63;5105153;27;20051;-71
2023/01/22 06:37:16;;;;;;;13.27;9.15;;;;;;;3.71;100.00;100637.88;5100876;28;20036;-69
2023/01/22 06:39:42;;;;;;;11.85;7.78;;;;;;;3.68;100.00;100645.16;5101787;28;20030;-69
2023/01/22 06:42:07;;;;;;;14.05;8.75;;;;;;;3.67;100.00;100641.63;5090608;27;20042;-69
2023/01/22 06:44:33;;;;;;;14.02;9.18;;;;;;;3.69;100.00;100647.72;5105136;28;20168;-69
2023/01/22 06:46:58;;;;;;;14.27;8.27;;;;;;;3.70;100.00;100648.56;5102812;28;20059;-69
2023/01/22 06:49:24;;;;;;;17.08;9.38;;;;;;;3.69;100.00;100657.47;5104733;27;20038;-70
2023/01/22 06:51:49;;;;;;;13.27;8.65;;;;;;;3.70;100.00;100653.84;5097857;28;20048;-70
2023/01/22 06:54:15;;;;;;;14.52;9.38;;;;;;;3.73;100.00;100659.88;5103328;28;20043;-69
2023/01/22 06:56:40;;;;;;;13.25;8.95;;;;;;;3.66;100.00;100647.88;5094004;28;20398;-70
2023/01/22 06:59:06;;;;;;;13.52;9.27;;;;;;;3.74;100.00;100658.91;5103846;28;20034;-70
2023/01/22 07:01:31;;;;;;;16.38;9.43;;;;;;;3.68;100.00;100653.09;5097302;28;20039;-70
2023/01/22 07:03:56;;;;;;;16.70;9.63;;;;;;;3.73;100.00;100675.78;5094236;28;20035;-70
2023/01/22 07:06:22;;;;;;;14.27;9.65;;;;;;;3.82;100.00;100669.13;5100959;28;20027;-71
2023/01/22 07:08:48;;;;;;;13.13;9.25;;;;;;;3.80;100.00;100669.19;5104520;27;20028;-71
2023/01/22 07:11:14;;;;;;;14.48;9.60;;;;;;;3.75;100.00;100665.97;5099279;28;20027;-70
2023/01/22 07:13:40;;;;;;;15.98;9.98;;;;;;;3.83;100.00;100668.16;5100592;27;20043;-70
2023/01/22 07:16:06;;;;;;;15.38;9.30;;;;;;;3.81;100.00;100670.06;5101383;28;20365;-70
2023/01/22 07:18:31;;;;;;;14.00;9.85;;;;;;;3.87;100.00;100683.84;5094418;27;20027;-71
2023/01/22 07:21:02;;;;;;;14.52;9.35;;;;;;;3.92;100.00;100684.47;5098696;27;20085;-70
2023/01/22 07:23:28;;;;;;;16.05;10.07;;;;;;;3.93;100.00;100688.81;5094608;28;20032;-70
2023/01/22 07:25:54;;;;;;;14.00;9.43;;;;;;;3.97;100.00;100694.81;5099087;28;20038;-70
2023/01/22 07:28:19;;;;;;;17.80;10.40;;;;;;;4.01;100.00;100699.88;5095928;28;20434;-71
2023/01/22 07:30:45;;;;;;;17.02;10.80;;;;;;;4.02;100.00;100690.09;5102841;28;20024;-71
2023/01/22 07:33:12;;;;;;;16.98;10.00;;;;;;;4.07;100.00;100702.16;5100266;27;20535;-69
2023/01/22 07:35:38;;;;;;;17.50;10.15;;;;;;;4.12;100.00;100712.53;5097517;27;20393;-70
2023/01/22 07:38:04;;;;;;;20.88;11.93;;;;;;;4.05;100.00;100703.19;5097483;28;20050;-70
2023/01/22 07:40:29;;;;;;;16.50;10.68;;;;;;;4.14;100.00;100713.31;5095903;28;20027;-69
2023/01/22 07:42:55;;;;;;;16.38;11.10;;;;;;;4.21;100.00;100725.31;5090903;28;20079;-70
2023/01/22 07:45:23;;;;;;;14.82;10.18;;;;;;;4.17;100.00;100731.72;5095705;28;20027;-70
2023/01/22 07:47:57;;;;;;;14.00;9.43;;;;;;;4.14;100.00;100726.59;5098090;28;20093;-70
2023/01/22 07:50:27;;;;;;;13.48;9.35;;;;;;;4.12;100.00;100718.72;5097412;28;20205;-68
2023/01/22 07:52:54;;;;;;;14.40;10.18;;;;;;;4.21;100.00;100743.88;5095978;28;20028;-68
2023/01/22 07:55:20;;;;;;;15.35;9.73;;;;;;;4.20;100.00;100742.19;5103919;28;20168;-68
2023/01/22 07:57:45;;;;;;;17.10;10.77;;;;;;;4.18;100.00;100746.69;5104555;28;20035;-68
2023/01/22 08:00:14;;;;;;;15.65;10.32;;;;;;;4.25;100.00;100753.38;5100987;28;20092;-69
2023/01/22 08:02:41;;;;;;;17.80;10.70;;;;;;;4.23;100.00;100742.84;5101102;28;20092;-69
2023/01/22 08:05:08;;;;;;;18.33;11.13;;;;;;;4.17;100.00;100737.03;5096596;28;20084;-68
2023/01/22 08:07:33;;;;;;;18.77;11.70;;;;;;;4.24;100.00;100759.66;5096559;28;20030;-68
2023/01/22 08:09:59;;;;;;;20.67;13.18;;;;;;;4.23;100.00;100749.97;5099076;28;20212;-69
2023/01/22 08:12:24;;;;;;;25.58;14.88;;;;;;;4.05;100.00;100724.44;5098314;28;20067;-69
2023/01/22 08:14:50;;;;;;;20.52;12.75;;;;;;;4.24;100.00;100763.16;5101118;28;20369;-69
2023/01/22 08:17:15;;;;;;;17.90;11.55;;;;;;;4.21;100.00;100759.81;5099982;28;20039;-69
2023/01/22 08:19:41;;;;;;;17.20;11.55;;;;;;;4.21;100.00;100768.66;5092813;28;20046;-69
2023/01/22 08:22:06;;;;;;;18.35;11.85;;;;;;;4.23;100.00;100763.25;5088669;27;20476;-69
2023/01/22 08:24:33;;;;;;;15.95;10.63;;;;;;;4.31;100.00;100763.66;5096442;27;20027;-69
2023/01/22 08:26:59;;;;;;;17.50;11.63;;;;;;;4.43;100.00;100778.94;5096197;28;20027;-69
2023/01/22 08:29:24;;;;;;;18.20;11.07;;;;;;;4.45;100.00;100777.91;5100499;28;20385;-69
2023/01/22 08:31:53;;;;;;;17.95;11.52;;;;;;;4.43;100.00;100787.78;5105825;28;20023;-70
2023/01/22 08:34:20;;;;;;;19.65;12.73;;;;;;;4.48;100.00;100782.16;5095470;28;20097;-71
2023/01/22 08:36:45;;;;;;;16.88;11.18;;;;;;;4.38;100.00;100739.34;5099544;28;20749;-71
2023/01/22 08:39:12;;;;;;;18.05;11.93;;;;;;;4.57;100.00;100768.38;5095491;28;20043;-69
2023/01/22 08:41:38;;;;;;;21.02;12.80;;;;;;;4.68;100.00;100774.81;5098405;28;20028;-71
2023/01/22 08:44:03;;;;;;;17.65;12.55;;;;;;;4.72;100.00;100796.75;5094484;28;20038;-69
2023/01/22 08:46:29;;;;;;;17.60;11.35;;;;;;;4.78;100.00;100787.56;5097860;28;20019;-68
2023/01/22 08:48:54;;;;;;;20.10;12.18;;;;;;;4.87;100.00;100787.06;5100745;28;20023;-69
2023/01/22 08:51:22;;;;;;;18.42;12.10;;;;;;;4.91;100.00;100785.94;5098091;28;20051;-68
2023/01/22 08:53:47;;;;;;;15.55;10.90;;;;;;;4.98;100.00;100811.22;5093988;28;20039;-69
2023/01/22 08:56:13;;;;;;;19.23;13.00;;;;;;;4.93;100.00;100800.84;5090660;28;20388;-69
2023/01/22 08:58:38;;;;;;;17.83;12.20;;;;;;;5.01;100.00;100814.56;5103735;27;20483;-69
2023/01/22 09:01:04;;;;;;;19.10;11.68;;;;;;;5.00;100.00;100806.69;5102586;27;20029;-68
2023/01/22 09:03:29;;;;;;;18.85;12.45;;;;;;;5.07;100.00;100819.53;5098582;28;20027;-68
2023/01/22 09:05:56;;;;;;;16.83;12.07;;;;;;;5.06;100.00;100803.69;5087827;27;20042;-69
2023/01/22 09:08:22;;;;;;;19.02;12.88;;;;;;;5.11;100.00;100802.47;5092871;28;20183;-71
2023/01/22 09:10:47;;;;;;;18.58;12.23;;;;;;;5.20;100.00;100807.25;5091100;27;20548;-71
2023/01/22 09:13:13;;;;;;;17.75;12.52;;;;;;;5.40;100.00;100822.91;5088862;27;20020;-70
2023/01/22 09:15:39;;;;;;;17.75;12.40;;;;;;;5.41;100.00;100813.97;5099252;28;20488;-70
2023/01/22 09:18:05;;;;;;;15.93;11.32;;;;;;;5.49;100.00;100818.84;5091145;27;20484;-70
2023/01/22 09:20:30;;;;;;;17.55;12.30;;;;;;;5.61;100.00;100820.78;5099805;27;20031;-71
2023/01/22 09:22:56;;;;;;;18.23;12.10;;;;;;;5.71;100.00;100836.06;5089246;27;20789;-71
2023/01/22 09:25:21;;;;;;;18.92;13.52;;;;;;;5.80;100.00;100832.03;5096661;27;20027;-70
2023/01/22 09:27:47;;;;;;;18.23;12.52;;;;;;;5.85;100.00;100814.88;5098458;28;20039;-70
2023/01/22 09:30:15;;;;;;;19.80;13.30;;;;;;;5.95;100.00;100816.03;5104639;28;20023;-69
2023/01/22 09:32:40;;;;;;;19.60;13.98;;;;;;;6.09;100.00;100825.81;5098443;28;20508;-68
2023/01/22 09:35:07;;;;;;;17.75;13.45;;;;;;;6.18;100.00;100827.91;5091902;28;20032;-71
2023/01/22 09:37:33;;;;;;;18.52;12.38;;;;;;;6.15;100.00;100828.97;5096767;28;20036;-71
2023/01/22 09:39:58;;;;;;;19.55;12.90;;;;;;;6.15;100.00;100828.97;5091579;27;20429;-71
2023/01/22 09:42:35;;;;;;;17.20;12.52;;;;;;;6.29;100.00;100836.09;5090212;28;20020;-71
2023/01/22 09:45:09;;;;;;;18.70;12.52;;;;;;;6.39;100.00;100851.41;5098654;28;20053;-71
2023/01/22 09:47:43;;;;;;;19.23;13.80;;;;;;;6.39;100.00;100840.75;5107825;28;20031;-69
2023/01/22 09:50:17;;;;;;;17.90;12.82;;;;;;;6.40;100.00;100855.81;5107948;28;20483;-71
2023/01/22 09:52:43;;;;;;;18.25;12.93;;;;;;;6.43;100.00;100874.25;5107226;28;20088;-71
2023/01/22 09:55:12;;;;;;;21.63;13.77;;;;;;;6.41;100.00;100856.63;5107886;28;20039;-71
2023/01/22 09:57:45;;;;;;;18.42;13.20;;;;;;;6.43;100.00;100866.28;5101079;28;20480;-70
2023/01/22 10:00:15;;;;;;;18.88;13.10;;;;;;;6.27;100.00;100838.00;5104653;28;20702;-71
2023/01/22 10:02:48;;;;;;;17.20;13.70;;;;;;;6.47;100.00;100858.91;5092570;27;20749;-70
2023/01/22 10:05:36;;;;;;;16.67;13.38;;;;;;;6.61;100.00;100861.59;5108179;28;20118;-70
2023/01/22 10:08:04;;;;;;;19.02;14.13;;;;;;;6.78;100.00;100869.38;5109595;28;20476;-70
2023/01/22 10:10:31;;;;;;;18.98;13.75;;;;;;;6.91;100.00;100867.66;5109802;27;20035;-70
2023/01/22 10:13:00;;;;;;;19.38;14.45;;;;;;;6.95;100.00;100870.03;5104888;28;20038;-70
2023/01/22 10:15:26;;;;;;;22.73;14.52;;;;;;;6.94;100.00;100862.94;5108854;28;20063;-70
2023/01/22 10:17:55;;;;;;;20.80;14.13;;;;;;;6.88;100.00;100863.38;5104340;28;20051;-70
2023/01/22 10:20:23;;;;;;;20.60;14.65;;;;;;;6.91;100.00;100868.47;5106654;28;20040;-70
2023/01/22 10:22:50;;;;;;;18.65;13.43;;;;;;;6.96;100.00;100881.53;5100726;27;20051;-69
2023/01/22 10:25:16;;;;;;;18.15;13.65;;;;;;;6.88;100.00;100874.03;5106732;28;20036;-69
2023/01/22 10:27:44;;;;;;;18.50;13.63;;;;;;;6.90;100.00;100882.78;5099866;28;20026;-69
2023/01/22 10:30:22;;;;;;;22.02;14.90;;;;;;;6.90;100.00;100888.09;5103697;28;20471;-69
2023/01/22 10:33:03;;;;;;;20.17;14.35;;;;;;;6.86;100.00;100883.06;5101916;28;20027;-69
2023/01/22 10:35:30;;;;;;;18.60;13.90;;;;;;;6.88;100.00;100890.03;5108707;28;20068;-69
2023/01/22 10:37:57;;;;;;;21.50;14.82;;;;;;;6.80;100.00;100886.97;5090527;28;20032;-68
2023/01/22 10:40:39;;;;;;;20.23;14.88;;;;;;;6.83;100.00;100892.13;5100985;27;20022;-68
2023/01/22 10:43:16;;;;;;;19.08;14.82;;;;;;;6.84;100.00;100899.16;5101849;28;20384;-69
2023/01/22 10:45:58;;;;;;;23.25;15.98;;;;;;;6.67;100.00;100867.38;5102053;28;20026;-68
2023/01/22 10:48:24;;;;;;;19.38;14.20;;;;;;;6.82;100.00;100890.41;5106111;28;20054;-68
2023/01/22 10:51:07;;;;;;;23.63;16.27;;;;;;;6.80;100.00;100889.66;5102406;28;20492;-68
2023/01/22 10:53:35;;;;;;;22.90;16.20;;;;;;;6.78;100.00;100882.72;5102049;28;20028;-69
2023/01/22 10:56:03;;;;;;;24.38;17.00;;;;;;;6.88;100.00;100894.50;5100956;28;20080;-69
2023/01/22 10:58:32;;;;;;;22.25;15.85;;;;;;;6.85;100.00;100884.91;5091930;27;20046;-69
2023/01/22 11:01:04;;;;;;;24.40;16.08;;;;;;;6.84;100.00;100877.84;5104330;28;20023;-70
2023/01/22 11:03:39;;;;;;;23.75;17.40;;;;;;;6.88;100.00;100883.84;5101959;28;20114;-69
2023/01/22 11:06:16;;;;;;;26.35;18.40;;;;;;;6.91;100.00;100896.97;5080428;28;20042;-69
2023/01/22 11:09:06;;;;;;;22.05;16.48;;;;;;;6.94;100.00;100905.63;5083454;27;20395;-69
2023/01/22 11:11:37;;;;;;;26.02;18.30;;;;;;;6.94;100.00;100894.13;5097211;28;20346;-69
2023/01/22 11:14:33;;;;;;;28.27;20.50;;;;;;;6.97;100.00;100893.94;5091643;28;20027;-70
2023/01/22 11:17:05;;;;;;;40.03;24.83;;;;;;;7.02;100.00;100898.97;5084613;28;20051;-70
2023/01/22 11:19:39;;;;;;;37.70;26.17;;;;;;;7.02;100.00;100896.28;5096581;28;20058;-70